Portland, Missouri
Current Conditions -  °F | °C
As of 2:06 PM on Sunday 23 Nov 2014 (Local Time) from KJEF Reporting Station
Light Rain Light Rain  
Wind Chill: 12°   Ceiling: 800
Heat Index: 12°   Visibility: 4mi
Dew Point: 12°   Wind: 3mph
Humidity: 97%   Direction: 100°E
Pressure: 29.37"   Gusts: NA
Location:  38.71°N, 91.72°W
Report Text: KJEF 232006Z 10003KT 4SM -RA BR OVC008 12/12 A2937 RMK AO2 RAB1958 P0001 T01220117
Loading
Personal Weather Stations






























Interactive Weather Map New forecast layout! Learn more

10-Day Weather Forecast

Advertisements
Track Severe Weather on mobile